Time;durP1;ratioP1;P1;durP2;ratioP2;P2;SDS_P1;SDS_P2;PMS_P1;PMS_P2;Temp;Humidity;BMP_temperature;BMP_pressure;BME280_temperature;BME280_humidity;BME280_pressure;Samples;Min_cycle;Max_cycle;Signal;HPM_P1;HPM_P2
2021/06/04 00:00:44;;;;;;;8.88;7.72;;;22.50;99.90;;;;;;4138144;28;20069;-86
2021/06/04 00:02:45;;;;;;;8.90;7.88;;;22.40;99.90;;;;;;4137735;28;20080;-86
2021/06/04 00:04:47;;;;;;;8.60;7.55;;;22.40;99.90;;;;;;4118861;28;20038;-86
2021/06/04 00:06:47;;;;;;;10.50;7.75;;;22.40;99.90;;;;;;4141195;28;20042;-86
2021/06/04 00:08:49;;;;;;;8.70;7.80;;;22.30;99.90;;;;;;4121759;28;20072;-86
2021/06/04 00:10:57;;;;;;;9.17;8.00;;;22.30;99.90;;;;;;4121955;28;20643;-85
2021/06/04 00:13:33;;;;;;;9.52;8.52;;;22.20;99.90;;;;;;4139162;28;20336;-86
2021/06/04 00:15:33;;;;;;;9.98;8.98;;;22.20;99.90;;;;;;4138201;28;20038;-86
2021/06/04 00:17:34;;;;;;;9.88;8.70;;;22.30;99.90;;;;;;4140434;28;20117;-86
2021/06/04 00:19:35;;;;;;;10.55;9.45;;;22.20;99.90;;;;;;4138310;28;20049;-86
2021/06/04 00:21:41;;;;;;;9.65;8.38;;;22.20;99.90;;;;;;4135510;28;20049;-85
2021/06/04 00:23:42;;;;;;;11.48;9.45;;;22.20;99.90;;;;;;4122462;28;20031;-86
2021/06/04 00:25:43;;;;;;;12.75;10.07;;;22.20;99.90;;;;;;4136711;28;20283;-86
2021/06/04 00:27:44;;;;;;;12.48;10.23;;;22.20;99.90;;;;;;4117739;28;20047;-86
2021/06/04 00:29:45;;;;;;;11.88;9.63;;;22.20;99.90;;;;;;4139422;28;20088;-86
2021/06/04 00:31:47;;;;;;;9.63;8.63;;;22.30;99.90;;;;;;4134545;28;20034;-86
2021/06/04 00:33:50;;;;;;;10.90;9.50;;;22.20;99.90;;;;;;4122024;28;20113;-86
2021/06/04 00:35:50;;;;;;;15.27;9.43;;;22.20;99.90;;;;;;4121419;28;20039;-86
2021/06/04 00:37:51;;;;;;;12.57;8.98;;;22.20;99.90;;;;;;4138812;28;20041;-86
2021/06/04 00:39:52;;;;;;;9.77;8.25;;;22.20;99.90;;;;;;4138977;28;20045;-86
2021/06/04 00:41:57;;;;;;;8.57;7.70;;;22.20;99.90;;;;;;4137722;28;20545;-86
2021/06/04 00:43:59;;;;;;;8.32;7.53;;;22.20;99.90;;;;;;4138300;28;20026;-86
2021/06/04 00:46:02;;;;;;;9.52;8.18;;;22.20;99.90;;;;;;4136474;28;20375;-86
2021/06/04 00:48:02;;;;;;;7.80;7.00;;;22.20;99.90;;;;;;4138248;28;21158;-87
2021/06/04 00:50:08;;;;;;;9.30;8.30;;;22.20;99.90;;;;;;4136903;28;20573;-86
2021/06/04 00:52:14;;;;;;;11.38;8.75;;;22.20;99.90;;;;;;4119700;28;20046;-86
2021/06/04 00:54:15;;;;;;;11.05;8.68;;;22.20;99.90;;;;;;4134875;28;20046;-86
2021/06/04 00:56:16;;;;;;;8.95;7.88;;;22.20;99.90;;;;;;4136552;28;20045;-86
2021/06/04 00:58:21;;;;;;;8.85;7.95;;;22.10;99.90;;;;;;4118375;28;20042;-85
2021/06/04 01:00:32;;;;;;;10.93;8.38;;;22.10;99.90;;;;;;4137630;28;20562;-85
2021/06/04 01:02:33;;;;;;;9.73;8.57;;;22.00;99.90;;;;;;4137304;28;20486;-86
2021/06/04 01:04:34;;;;;;;9.73;8.18;;;22.00;99.90;;;;;;4137389;28;20041;-86
2021/06/04 01:06:48;;;;;;;9.73;8.73;;;22.00;99.90;;;;;;4139104;28;20045;-86
2021/06/04 01:09:02;;;;;;;13.55;9.60;;;22.00;99.90;;;;;;4137482;28;20054;-86
2021/06/04 01:11:08;;;;;;;12.02;9.27;;;22.00;99.90;;;;;;4121738;28;20455;-86
2021/06/04 01:13:15;;;;;;;9.77;8.57;;;22.00;99.90;;;;;;4135461;28;20033;-86
2021/06/04 01:15:38;;;;;;;11.05;8.77;;;22.00;99.90;;;;;;4138084;28;20522;-86
2021/06/04 01:17:49;;;;;;;;;;;22.00;99.90;;;;;;4137307;28;20401;-86
2021/06/04 01:20:17;;;;;;;9.65;8.45;;;21.90;99.90;;;;;;4134507;28;20028;-85
2021/06/04 01:22:48;;;;;;;9.68;8.70;;;21.90;99.90;;;;;;4130485;28;20037;-85
2021/06/04 01:24:48;;;;;;;9.73;8.52;;;21.90;99.90;;;;;;4121096;28;20034;-85
2021/06/04 01:27:00;;;;;;;10.35;8.95;;;21.80;99.90;;;;;;4121954;28;20034;-85
2021/06/04 01:29:08;;;;;;;16.15;9.32;;;21.90;99.90;;;;;;4133039;28;20501;-86
2021/06/04 01:31:37;;;;;;;11.15;9.50;;;21.90;99.90;;;;;;4138095;28;20443;-86
2021/06/04 01:33:46;;;;;;;14.80;9.35;;;21.80;99.90;;;;;;4120864;28;20109;-86
2021/06/04 01:35:53;;;;;;;11.65;10.05;;;21.80;99.90;;;;;;4120311;28;20045;-85
2021/06/04 01:37:56;;;;;;;11.48;9.73;;;21.80;99.90;;;;;;4134717;28;20039;-85
2021/06/04 01:39:59;;;;;;;;;;;21.80;99.90;;;;;;4137932;28;20615;-86
2021/06/04 01:42:02;;;;;;;10.10;8.43;;;21.80;99.90;;;;;;4121464;28;20288;-86
2021/06/04 01:44:12;;;;;;;8.57;7.68;;;21.80;99.90;;;;;;4120133;28;20502;-86
2021/06/04 01:46:34;;;;;;;10.60;8.60;;;21.80;99.90;;;;;;4119340;28;20034;-86
2021/06/04 01:48:40;;;;;;;10.45;9.02;;;21.80;99.90;;;;;;4135179;28;20529;-85
2021/06/04 01:51:04;;;;;;;10.38;8.43;;;21.80;99.90;;;;;;4120683;28;20089;-85
2021/06/04 01:53:11;;;;;;;11.60;9.07;;;21.80;99.90;;;;;;4121439;28;20041;-86
2021/06/04 01:55:14;;;;;;;12.38;10.00;;;21.80;99.90;;;;;;4137446;28;20037;-86
2021/06/04 01:57:29;;;;;;;13.32;11.35;;;21.80;99.90;;;;;;4135108;28;20034;-86
2021/06/04 01:59:34;;;;;;;13.73;11.43;;;21.80;99.90;;;;;;4118889;28;20042;-86
2021/06/04 02:01:42;;;;;;;11.80;10.27;;;21.80;99.90;;;;;;4120421;28;20443;-86
2021/06/04 02:03:44;;;;;;;11.07;9.38;;;21.80;99.90;;;;;;4136188;28;20041;-86
2021/06/04 02:05:46;;;;;;;11.83;9.77;;;21.80;99.90;;;;;;4118554;28;20035;-86
2021/06/04 02:07:47;;;;;;;12.57;10.80;;;21.80;99.90;;;;;;4121682;28;20280;-86
2021/06/04 02:09:48;;;;;;;13.63;11.35;;;21.80;99.90;;;;;;4140993;28;20116;-86
2021/06/04 02:11:49;;;;;;;13.38;11.80;;;21.80;99.90;;;;;;4141127;28;20116;-85
2021/06/04 02:13:50;;;;;;;12.53;10.57;;;21.80;99.90;;;;;;4141022;28;20503;-85
2021/06/04 02:16:19;;;;;;;13.20;10.90;;;21.80;99.90;;;;;;4122241;28;20061;-85
2021/06/04 02:18:38;;;;;;;13.30;11.30;;;21.80;99.90;;;;;;4123037;28;20045;-86
2021/06/04 02:20:58;;;;;;;17.85;10.43;;;21.80;99.90;;;;;;4137589;28;20526;-85
2021/06/04 02:23:02;;;;;;;13.18;10.60;;;21.80;99.90;;;;;;4122850;28;20125;-85
2021/06/04 02:25:38;;;;;;;12.82;11.32;;;21.80;99.90;;;;;;4122674;28;20038;-85
2021/06/04 02:27:49;;;;;;;12.18;10.90;;;21.80;99.90;;;;;;4118962;28;20031;-85
2021/06/04 02:30:00;;;;;;;11.93;10.23;;;21.80;99.90;;;;;;4119622;28;20026;-86
2021/06/04 02:32:36;;;;;;;13.40;10.75;;;21.80;99.90;;;;;;4122365;28;20087;-86
2021/06/04 02:34:43;;;;;;;12.95;11.52;;;21.80;99.90;;;;;;4107766;28;20034;-85
2021/06/04 02:36:48;;;;;;;13.07;10.77;;;21.80;99.90;;;;;;4138968;28;20069;-85
2021/06/04 02:38:53;;;;;;;12.43;11.05;;;21.80;99.90;;;;;;4123699;28;20073;-85
2021/06/04 02:41:00;;;;;;;12.52;10.43;;;21.70;99.90;;;;;;4133689;28;20405;-85
2021/06/04 02:43:10;;;;;;;10.35;8.80;;;21.80;99.90;;;;;;4123607;28;20030;-85
2021/06/04 02:45:17;;;;;;;11.48;9.98;;;21.70;99.90;;;;;;4136773;28;20080;-85
2021/06/04 02:47:23;;;;;;;12.43;10.40;;;21.70;99.90;;;;;;4121700;28;20097;-85
2021/06/04 02:49:26;;;;;;;10.90;9.27;;;21.70;99.90;;;;;;4139421;28;20442;-85
2021/06/04 02:51:51;;;;;;;12.93;9.90;;;21.70;99.90;;;;;;4121575;28;20134;-85
2021/06/04 02:54:03;;;;;;;11.88;9.40;;;21.70;99.90;;;;;;4136844;28;20026;-85
2021/06/04 02:56:04;;;;;;;11.60;10.35;;;21.70;99.90;;;;;;4123854;28;20525;-85
2021/06/04 02:58:04;;;;;;;14.93;10.50;;;21.70;99.90;;;;;;4140700;28;20049;-85
2021/06/04 03:00:29;;;;;;;13.32;11.65;;;21.70;99.90;;;;;;4123831;28;20042;-85
2021/06/04 03:02:32;;;;;;;12.82;10.82;;;21.70;99.90;;;;;;4138909;28;20061;-86
2021/06/04 03:04:36;;;;;;;9.77;8.75;;;21.70;99.90;;;;;;4125129;28;20062;-86
2021/06/04 03:06:41;;;;;;;12.07;9.48;;;21.60;99.90;;;;;;4136077;28;20038;-86
2021/06/04 03:08:44;;;;;;;10.73;8.45;;;21.60;99.90;;;;;;4139135;28;20450;-86
2021/06/04 03:10:48;;;;;;;11.57;9.45;;;21.60;99.90;;;;;;4124410;28;20039;-86
2021/06/04 03:12:50;;;;;;;12.75;9.27;;;21.50;99.90;;;;;;4122202;28;20038;-86
2021/06/04 03:14:53;;;;;;;13.32;9.95;;;21.50;99.90;;;;;;4122352;28;20578;-86
2021/06/04 03:16:56;;;;;;;12.15;10.90;;;21.50;99.90;;;;;;4125029;28;20538;-85
2021/06/04 03:19:01;;;;;;;11.52;10.30;;;21.40;99.90;;;;;;4123817;28;20049;-85
2021/06/04 03:21:09;;;;;;;10.85;9.75;;;21.40;99.90;;;;;;4123928;28;20039;-85
2021/06/04 03:23:13;;;;;;;12.95;11.10;;;21.40;99.90;;;;;;4140002;28;20026;-86
2021/06/04 03:25:28;;;;;;;12.73;11.02;;;21.40;99.90;;;;;;4124201;28;20039;-86
2021/06/04 03:27:29;;;;;;;15.18;11.70;;;21.40;99.90;;;;;;4140181;28;20121;-86
2021/06/04 03:29:30;;;;;;;13.98;11.32;;;21.40;99.90;;;;;;4121883;28;20510;-85
2021/06/04 03:31:33;;;;;;;12.80;10.88;;;21.40;99.90;;;;;;4140652;28;20030;-85
2021/06/04 03:33:36;;;;;;;13.48;11.82;;;21.30;99.90;;;;;;4122866;28;20430;-85
2021/06/04 03:35:37;;;;;;;11.38;10.10;;;21.30;99.90;;;;;;4121905;28;20031;-85
2021/06/04 03:37:38;;;;;;;11.55;10.23;;;21.30;99.90;;;;;;4140240;28;20399;-85
2021/06/04 03:39:43;;;;;;;13.18;11.38;;;21.30;99.90;;;;;;4139996;28;20045;-85
2021/06/04 03:41:48;;;;;;;13.55;12.02;;;21.30;99.90;;;;;;4139747;28;20060;-86
2021/06/04 03:43:49;;;;;;;15.13;13.27;;;21.30;99.90;;;;;;4135359;28;20030;-85
2021/06/04 03:45:51;;;;;;;15.73;13.75;;;21.30;99.90;;;;;;4139136;28;20041;-85
2021/06/04 03:47:52;;;;;;;16.90;14.13;;;21.30;99.90;;;;;;4124097;28;20034;-86
2021/06/04 03:49:53;;;;;;;16.13;13.48;;;21.30;99.90;;;;;;4122263;28;20030;-86
2021/06/04 03:51:56;;;;;;;17.38;14.38;;;21.30;99.90;;;;;;4122056;28;20534;-86
2021/06/04 03:53:57;;;;;;;15.60;12.75;;;21.30;99.90;;;;;;4137402;28;20125;-86
2021/06/04 03:55:59;;;;;;;17.52;13.88;;;21.30;99.90;;;;;;4138371;28;20033;-86
2021/06/04 03:58:00;;;;;;;16.80;13.30;;;21.30;99.90;;;;;;4123591;28;20034;-86
2021/06/04 04:00:05;;;;;;;15.35;13.25;;;21.30;99.90;;;;;;4136113;28;20138;-85
2021/06/04 04:02:09;;;;;;;17.45;13.88;;;21.30;99.90;;;;;;4122501;28;20069;-86
2021/06/04 04:04:11;;;;;;;14.35;12.20;;;21.30;99.90;;;;;;4118804;28;20034;-86
2021/06/04 04:06:12;;;;;;;13.85;11.68;;;21.30;99.90;;;;;;4124011;28;20517;-86
2021/06/04 04:08:15;;;;;;;15.15;13.15;;;21.30;99.90;;;;;;4123539;28;20139;-86
2021/06/04 04:10:17;;;;;;;15.18;12.10;;;21.30;99.90;;;;;;4139806;28;20065;-85
2021/06/04 04:12:18;;;;;;;16.33;13.35;;;21.30;99.90;;;;;;4139078;28;20486;-86
2021/06/04 04:14:20;;;;;;;14.30;12.10;;;21.30;99.90;;;;;;4121409;28;20054;-86
2021/06/04 04:16:21;;;;;;;;;;;21.30;99.90;;;;;;4135625;28;20026;-86
2021/06/04 04:18:22;;;;;;;13.05;11.50;;;21.30;99.90;;;;;;4138918;28;19944;-86
2021/06/04 04:20:54;;;;;;;17.42;13.60;;;21.30;99.90;;;;;;4136309;28;20714;-85
2021/06/04 04:22:56;;;;;;;15.75;13.50;;;21.30;99.90;;;;;;4117912;28;20373;-85
2021/06/04 04:24:56;;;;;;;16.20;14.18;;;21.20;99.90;;;;;;4139313;28;20037;-86
2021/06/04 04:26:58;;;;;;;17.42;15.48;;;21.30;99.90;;;;;;4122854;28;20558;-86
2021/06/04 04:28:59;;;;;;;15.25;12.30;;;21.20;99.90;;;;;;4122578;28;20478;-86
2021/06/04 04:31:00;;;;;;;14.25;12.63;;;21.20;99.90;;;;;;4139140;28;20030;-86
2021/06/04 04:33:02;;;;;;;16.17;12.68;;;21.20;99.90;;;;;;4139913;28;20470;-86
2021/06/04 04:35:04;;;;;;;12.87;10.87;;;21.20;99.90;;;;;;4137979;28;20588;-86
2021/06/04 04:37:05;;;;;;;14.32;11.52;;;21.20;99.90;;;;;;4137241;28;20529;-85
2021/06/04 04:39:10;;;;;;;13.57;11.52;;;21.20;99.90;;;;;;4123229;28;20034;-86
2021/06/04 04:41:11;;;;;;;15.48;12.93;;;21.10;99.90;;;;;;4123196;28;20049;-86
2021/06/04 04:43:12;;;;;;;16.13;12.90;;;21.10;99.90;;;;;;4123232;28;20022;-86
2021/06/04 04:45:16;;;;;;;17.52;14.63;;;21.00;99.90;;;;;;4120475;28;20446;-86
2021/06/04 04:47:20;;;;;;;17.23;13.95;;;21.00;99.90;;;;;;4136586;28;20029;-86
2021/06/04 04:49:22;;;;;;;19.60;14.95;;;21.00;99.90;;;;;;4120025;28;20039;-85
2021/06/04 04:51:26;;;;;;;20.33;16.67;;;21.00;99.90;;;;;;4135323;28;20030;-85
2021/06/04 04:53:26;;;;;;;21.13;16.23;;;21.10;99.90;;;;;;4138456;28;20483;-85
2021/06/04 04:55:35;;;;;;;19.33;14.82;;;21.10;99.90;;;;;;4122627;28;20031;-85
2021/06/04 04:57:36;;;;;;;17.98;15.50;;;21.10;99.90;;;;;;4121737;28;20042;-85
2021/06/04 04:59:37;;;;;;;16.98;14.13;;;21.10;99.90;;;;;;4121028;28;20030;-85
2021/06/04 05:01:40;;;;;;;21.58;15.95;;;21.10;99.90;;;;;;4138076;28;20109;-85
2021/06/04 05:03:41;;;;;;;18.10;15.05;;;21.10;99.90;;;;;;4122563;28;20065;-85
2021/06/04 05:05:42;;;;;;;19.30;15.68;;;21.10;99.90;;;;;;4122215;28;20157;-81
2021/06/04 05:07:43;;;;;;;20.15;16.60;;;21.10;99.90;;;;;;4123636;28;20034;-81
2021/06/04 05:09:44;;;;;;;24.63;16.90;;;21.20;99.90;;;;;;4140974;28;20499;-81
2021/06/04 05:11:46;;;;;;;20.10;16.25;;;21.20;99.90;;;;;;4139850;28;20038;-80
2021/06/04 05:13:47;;;;;;;20.33;16.55;;;21.20;99.90;;;;;;4120476;28;20038;-80
2021/06/04 05:15:47;;;;;;;20.00;15.95;;;21.20;99.90;;;;;;4139054;28;20084;-81
2021/06/04 05:17:49;;;;;;;20.80;17.13;;;21.30;99.90;;;;;;4138672;28;20433;-80
2021/06/04 05:19:49;;;;;;;20.05;14.90;;;21.30;99.90;;;;;;4123029;28;20476;-81
2021/06/04 05:21:50;;;;;;;21.35;17.15;;;21.30;99.90;;;;;;4138328;28;20089;-81
2021/06/04 05:23:52;;;;;;;19.77;15.45;;;21.30;99.90;;;;;;4130164;28;20497;-81
2021/06/04 05:25:54;;;;;;;20.53;16.67;;;21.40;99.90;;;;;;4143418;28;20029;-81
2021/06/04 05:27:55;;;;;;;20.52;16.33;;;21.40;99.90;;;;;;4123533;28;20278;-81
2021/06/04 05:29:56;;;;;;;23.63;18.50;;;21.40;99.90;;;;;;4135138;28;20514;-80
2021/06/04 05:31:56;;;;;;;20.25;16.83;;;21.40;99.90;;;;;;4143166;28;20057;-80
2021/06/04 05:33:58;;;;;;;20.60;16.05;;;21.40;99.90;;;;;;4146722;28;20113;-80
2021/06/04 05:36:09;;;;;;;20.88;16.42;;;21.50;99.90;;;;;;4124918;28;20518;-80
2021/06/04 05:38:10;;;;;;;20.08;16.08;;;21.50;99.90;;;;;;4134938;28;20054;-81
2021/06/04 05:40:17;;;;;;;19.10;15.70;;;21.50;99.90;;;;;;4124794;28;20112;-81
2021/06/04 05:42:18;;;;;;;23.58;17.27;;;21.40;99.90;;;;;;4139871;28;20080;-81
2021/06/04 05:44:24;;;;;;;21.05;16.40;;;21.50;99.90;;;;;;4124498;28;20046;-81
2021/06/04 05:46:25;;;;;;;22.33;17.33;;;21.50;99.90;;;;;;4134814;28;20629;-81
2021/06/04 05:48:26;;;;;;;19.80;16.33;;;21.50;99.90;;;;;;4141011;28;20022;-80
2021/06/04 05:50:35;;;;;;;23.10;17.58;;;21.50;99.90;;;;;;4126515;28;20043;-81
2021/06/04 05:52:36;;;;;;;24.35;17.67;;;21.60;99.90;;;;;;4145147;28;20529;-81
2021/06/04 05:54:43;;;;;;;22.30;17.35;;;21.60;99.90;;;;;;4145757;28;20042;-81
2021/06/04 05:56:44;;;;;;;23.98;18.75;;;21.60;99.90;;;;;;4141085;28;20037;-81
2021/06/04 05:58:45;;;;;;;22.95;18.73;;;21.60;99.90;;;;;;4140802;28;20915;-80
2021/06/04 06:00:49;;;;;;;23.45;18.20;;;21.60;99.90;;;;;;4142828;28;20483;-80
2021/06/04 06:02:50;;;;;;;19.92;16.38;;;21.60;99.90;;;;;;4136797;28;20128;-80
2021/06/04 06:04:50;;;;;;;22.27;17.27;;;21.60;99.90;;;;;;4121747;28;20445;-80
2021/06/04 06:06:53;;;;;;;27.67;21.17;;;21.70;99.90;;;;;;4138812;28;20058;-80
2021/06/04 06:08:53;;;;;;;27.67;20.50;;;21.70;99.90;;;;;;4146051;28;20038;-80
2021/06/04 06:10:54;;;;;;;25.00;19.08;;;21.70;99.90;;;;;;4142249;28;20042;-81
2021/06/04 06:12:55;;;;;;;30.70;20.55;;;21.60;99.90;;;;;;4140997;28;20494;-81
2021/06/04 06:14:55;;;;;;;29.15;21.83;;;21.60;99.90;;;;;;4124670;28;20478;-81
2021/06/04 06:16:56;;;;;;;30.52;21.08;;;21.60;99.90;;;;;;4140903;28;20133;-81
2021/06/04 06:18:57;;;;;;;29.40;21.45;;;21.70;99.90;;;;;;4140916;28;23145;-80
2021/06/04 06:20:59;;;;;;;33.95;21.15;;;21.70;99.90;;;;;;4145743;28;20272;-81
2021/06/04 06:23:00;;;;;;;28.98;21.42;;;21.80;99.90;;;;;;4144427;28;20108;-81
2021/06/04 06:25:01;;;;;;;29.25;20.45;;;21.80;99.90;;;;;;4127667;28;20038;-81
2021/06/04 06:27:02;;;;;;;26.30;17.95;;;21.90;99.90;;;;;;4143833;28;20033;-80
2021/06/04 06:29:06;;;;;;;26.92;18.35;;;21.80;99.90;;;;;;4145496;28;20044;-81
2021/06/04 06:31:15;;;;;;;29.70;21.33;;;21.90;99.90;;;;;;4140520;28;20133;-81
2021/06/04 06:33:17;;;;;;;27.88;20.17;;;22.00;99.90;;;;;;4121165;28;20034;-81
2021/06/04 06:35:23;;;;;;;26.42;17.90;;;22.00;99.90;;;;;;4152468;28;20038;-81
2021/06/04 06:37:24;;;;;;;27.90;20.65;;;22.00;99.90;;;;;;4158285;28;20411;-81
2021/06/04 06:39:28;;;;;;;29.50;20.38;;;22.10;99.90;;;;;;4131440;28;20022;-81
2021/06/04 06:41:30;;;;;;;24.13;17.95;;;22.20;99.90;;;;;;4141533;28;20030;-81
2021/06/04 06:43:33;;;;;;;23.40;16.95;;;22.20;99.90;;;;;;4124734;28;20117;-81
2021/06/04 06:45:34;;;;;;;24.55;17.98;;;22.30;99.90;;;;;;4141741;28;20038;-81
2021/06/04 06:47:35;;;;;;;32.83;22.30;;;22.40;99.90;;;;;;4140572;28;20582;-81
2021/06/04 06:49:35;;;;;;;31.50;22.40;;;22.40;99.90;;;;;;4124416;28;20034;-81
2021/06/04 06:51:37;;;;;;;26.45;19.17;;;22.50;99.90;;;;;;4126705;28;20061;-81
2021/06/04 06:53:39;;;;;;;24.13;18.53;;;22.50;99.90;;;;;;4123521;28;20046;-81
2021/06/04 06:55:43;;;;;;;24.00;17.30;;;22.50;99.90;;;;;;4145269;28;20029;-81
2021/06/04 06:57:44;;;;;;;26.35;18.55;;;22.60;99.90;;;;;;4146579;28;20127;-81
2021/06/04 06:59:45;;;;;;;23.13;17.05;;;22.60;99.90;;;;;;4148827;28;20117;-81
2021/06/04 07:01:47;;;;;;;24.40;17.92;;;22.60;99.90;;;;;;4144430;28;20065;-81
2021/06/04 07:03:47;;;;;;;25.58;18.05;;;22.70;99.90;;;;;;4146185;28;20033;-81
2021/06/04 07:05:48;;;;;;;22.67;16.98;;;22.70;99.90;;;;;;4123138;28;20049;-81
2021/06/04 07:07:49;;;;;;;25.88;19.13;;;22.70;99.90;;;;;;4144339;28;20037;-81
2021/06/04 07:09:49;;;;;;;24.63;18.63;;;22.80;99.90;;;;;;4147106;28;20143;-81
2021/06/04 07:11:54;;;;;;;24.95;18.05;;;22.80;99.90;;;;;;4144639;28;20026;-81
2021/06/04 07:13:55;;;;;;;23.00;17.00;;;22.80;99.90;;;;;;4126586;28;20031;-81
2021/06/04 07:16:00;;;;;;;26.30;18.63;;;22.90;99.90;;;;;;4128421;28;20085;-81
2021/06/04 07:18:00;;;;;;;23.10;17.63;;;22.90;99.90;;;;;;4128500;28;20030;-82
2021/06/04 07:20:02;;;;;;;24.58;17.45;;;22.90;99.90;;;;;;4143740;28;20041;-82
2021/06/04 07:22:04;;;;;;;28.57;20.40;;;23.00;99.90;;;;;;4145342;28;20038;-82
2021/06/04 07:24:12;;;;;;;26.27;18.77;;;23.00;99.90;;;;;;4140762;28;20495;-81
2021/06/04 07:26:14;;;;;;;24.90;17.83;;;23.00;99.90;;;;;;4143352;28;20050;-81
2021/06/04 07:28:17;;;;;;;27.77;18.77;;;23.00;99.90;;;;;;4142594;28;20026;-81
2021/06/04 07:30:22;;;;;;;26.90;19.17;;;23.00;99.90;;;;;;4141432;28;20033;-81
2021/06/04 07:32:23;;;;;;;25.88;19.48;;;23.00;99.90;;;;;;4125300;28;20061;-82
2021/06/04 07:34:27;;;;;;;27.88;19.02;;;22.90;99.90;;;;;;4141860;28;20069;-81
2021/06/04 07:36:33;;;;;;;28.88;19.50;;;22.90;99.90;;;;;;4139974;28;22303;-81
2021/06/04 07:38:34;;;;;;;25.10;18.98;;;22.90;99.90;;;;;;4143152;28;20124;-81
2021/06/04 07:40:36;;;;;;;25.73;18.65;;;22.90;99.90;;;;;;4144070;28;20045;-81
2021/06/04 07:42:37;;;;;;;24.83;18.37;;;23.00;99.90;;;;;;4129304;28;20100;-81
2021/06/04 07:44:39;;;;;;;27.40;19.60;;;23.00;99.90;;;;;;4128029;28;20057;-81
2021/06/04 07:46:41;;;;;;;30.60;21.70;;;23.10;99.90;;;;;;4126574;28;20072;-81
2021/06/04 07:48:43;;;;;;;28.52;19.15;;;23.10;99.90;;;;;;4131134;28;20038;-81
2021/06/04 07:50:44;;;;;;;24.85;17.92;;;23.10;99.90;;;;;;4142810;28;20045;-81
2021/06/04 07:52:45;;;;;;;24.27;18.38;;;23.10;99.90;;;;;;4145003;28;20034;-81
2021/06/04 07:54:46;;;;;;;24.45;17.70;;;23.10;99.90;;;;;;4128272;28;20406;-81
2021/06/04 07:56:47;;;;;;;23.65;17.23;;;23.20;99.90;;;;;;4125487;28;20040;-81
2021/06/04 07:58:48;;;;;;;25.83;17.10;;;23.20;99.90;;;;;;4128170;28;20894;-81
2021/06/04 08:00:49;;;;;;;25.23;18.73;;;23.20;99.90;;;;;;4142767;28;20042;-81
2021/06/04 08:02:50;;;;;;;23.63;17.50;;;23.30;99.90;;;;;;4123521;28;20470;-81
2021/06/04 08:04:53;;;;;;;29.45;20.58;;;23.30;99.90;;;;;;4140796;28;20048;-81
2021/06/04 08:06:54;;;;;;;27.73;20.02;;;23.30;99.90;;;;;;4138865;28;20148;-81
2021/06/04 08:08:56;;;;;;;28.27;19.77;;;23.30;99.90;;;;;;4140794;28;20038;-81
2021/06/04 08:10:58;;;;;;;26.40;17.98;;;23.40;99.90;;;;;;4143664;28;20075;-81
2021/06/04 08:13:00;;;;;;;24.55;17.00;;;23.40;99.90;;;;;;4147404;28;20038;-82
2021/06/04 08:15:07;;;;;;;24.40;17.50;;;23.40;99.90;;;;;;4142440;28;20037;-81
2021/06/04 08:17:07;;;;;;;24.00;17.02;;;23.50;99.90;;;;;;4130042;28;20459;-81
2021/06/04 08:19:08;;;;;;;19.92;15.02;;;23.50;99.90;;;;;;4126904;28;20050;-81
2021/06/04 08:21:17;;;;;;;22.20;16.38;;;23.60;99.90;;;;;;4143907;28;20204;-80
2021/06/04 08:23:23;;;;;;;26.75;18.50;;;23.70;99.90;;;;;;4124157;28;20545;-80
2021/06/04 08:25:30;;;;;;;22.88;14.15;;;23.70;99.90;;;;;;4126774;28;20046;-80
2021/06/04 08:27:31;;;;;;;26.10;18.23;;;23.80;99.90;;;;;;4128401;28;20030;-81
2021/06/04 08:29:32;;;;;;;22.48;15.63;;;23.70;99.90;;;;;;4125939;28;20045;-81
2021/06/04 08:31:33;;;;;;;23.48;15.80;;;23.70;99.90;;;;;;4142483;28;20041;-81
2021/06/04 08:33:39;;;;;;;17.65;13.57;;;23.80;99.90;;;;;;4127936;28;20023;-81
2021/06/04 08:35:39;;;;;;;22.73;15.95;;;23.90;99.90;;;;;;4144047;28;20726;-81
2021/06/04 08:37:41;;;;;;;19.13;13.93;;;24.00;99.90;;;;;;4143668;28;20033;-81
2021/06/04 08:39:43;;;;;;;18.25;14.20;;;24.00;99.90;;;;;;4141763;28;20122;-81
2021/06/04 08:41:57;;;;;;;21.27;14.82;;;24.10;99.90;;;;;;4141712;28;20424;-81
2021/06/04 08:44:25;;;;;;;19.42;13.80;;;24.10;99.90;;;;;;4142252;28;20398;-81
2021/06/04 08:46:30;;;;;;;19.27;12.00;;;24.20;99.90;;;;;;4121420;28;20463;-81
2021/06/04 08:48:45;;;;;;;17.33;11.90;;;24.30;99.90;;;;;;4145423;28;20056;-81
2021/06/04 08:51:06;;;;;;;18.42;12.00;;;24.30;99.90;;;;;;4142736;28;20089;-81
2021/06/04 08:53:28;;;;;;;18.73;13.95;;;24.40;99.90;;;;;;4124591;28;20038;-81
2021/06/04 08:56:03;;;;;;;15.57;10.88;;;24.50;99.90;;;;;;4123070;28;20060;-81
2021/06/04 08:58:34;;;;;;;17.95;10.32;;;24.60;99.90;;;;;;4119194;28;20038;-81
2021/06/04 09:00:39;;;;;;;13.60;10.80;;;24.70;99.90;;;;;;4144470;28;20045;-81
2021/06/04 09:02:47;;;;;;;16.20;11.48;;;24.80;99.90;;;;;;4141163;28;20044;-81
2021/06/04 09:05:15;;;;;;;15.13;11.82;;;24.80;99.90;;;;;;4140344;28;20044;-80
2021/06/04 09:07:22;;;;;;;19.50;12.75;;;24.90;99.90;;;;;;4143312;28;20048;-80
2021/06/04 09:09:43;;;;;;;14.40;11.23;;;25.00;99.90;;;;;;4145428;28;20454;-80
2021/06/04 09:11:50;;;;;;;14.40;10.18;;;25.10;99.90;;;;;;4122790;28;20041;-81
2021/06/04 09:13:51;;;;;;;16.58;12.38;;;25.20;99.90;;;;;;4124410;28;20506;-80
2021/06/04 09:15:57;;;;;;;15.82;11.25;;;25.40;99.90;;;;;;4138118;28;20031;-80
2021/06/04 09:18:02;;;;;;;11.88;8.80;;;25.40;99.90;;;;;;4142458;28;20136;-80
2021/06/04 09:20:10;;;;;;;13.38;9.15;;;25.50;99.90;;;;;;4135504;28;20159;-80
2021/06/04 09:22:11;;;;;;;12.25;8.15;;;25.60;99.90;;;;;;4124007;28;20034;-81
2021/06/04 09:24:24;;;;;;;11.18;8.55;;;25.60;99.90;;;;;;4124573;28;20085;-80
2021/06/04 09:26:27;;;;;;;9.63;7.55;;;25.70;99.90;;;;;;4143389;28;20510;-81
2021/06/04 09:28:35;;;;;;;17.45;11.75;;;25.80;99.90;;;;;;4139559;28;20045;-80
2021/06/04 09:30:53;;;;;;;14.93;9.70;;;25.80;99.90;;;;;;4143292;28;20039;-80
2021/06/04 09:33:00;;;;;;;13.00;8.10;;;25.80;99.90;;;;;;4139420;28;20038;-80
2021/06/04 09:35:16;;;;;;;20.13;11.02;;;25.90;99.90;;;;;;4142140;28;20236;-80
2021/06/04 09:37:23;;;;;;;20.23;13.02;;;25.90;99.90;;;;;;4124094;28;20030;-80
2021/06/04 09:39:46;;;;;;;13.55;10.60;;;26.00;99.90;;;;;;4144831;28;20030;-81
2021/06/04 09:41:47;;;;;;;16.40;10.05;;;26.00;99.90;;;;;;4141895;28;20022;-81
2021/06/04 09:43:50;;;;;;;15.48;10.27;;;26.10;99.90;;;;;;4143466;28;20121;-81
2021/06/04 09:46:04;;;;;;;14.15;9.85;;;26.20;99.90;;;;;;4124075;28;20131;-80
2021/06/04 09:48:11;;;;;;;15.25;10.07;;;26.20;99.90;;;;;;4123552;28;20045;-81
2021/06/04 09:50:23;;;;;;;9.20;7.32;;;26.30;99.90;;;;;;4147601;28;20031;-80
2021/06/04 09:52:29;;;;;;;21.27;8.87;;;26.30;99.90;;;;;;4144548;28;20543;-80
2021/06/04 09:54:30;;;;;;;16.05;10.07;;;26.40;99.90;;;;;;4147140;28;20276;-80
2021/06/04 09:56:33;;;;;;;14.27;9.73;;;26.50;99.90;;;;;;4123435;28;20034;-80
2021/06/04 09:58:52;;;;;;;14.73;9.98;;;26.60;99.90;;;;;;4144515;28;20040;-80
2021/06/04 10:01:03;;;;;;;15.07;9.13;;;26.60;99.90;;;;;;4138816;28;20045;-80
2021/06/04 10:03:11;;;;;;;13.48;8.18;;;26.60;99.90;;;;;;4139443;28;20042;-80
2021/06/04 10:05:18;;;;;;;12.10;8.52;;;26.60;99.90;;;;;;4137627;28;20502;-81
2021/06/04 10:07:23;;;;;;;15.50;11.13;;;26.70;99.90;;;;;;4124890;28;20037;-80
2021/06/04 10:09:39;;;;;;;11.30;8.30;;;26.80;99.90;;;;;;4144787;28;20148;-80
2021/06/04 10:11:39;;;;;;;14.57;9.38;;;26.90;99.90;;;;;;4143171;28;20098;-80
2021/06/04 10:13:48;;;;;;;13.35;8.73;;;26.80;99.90;;;;;;4142256;28;20033;-80
2021/06/04 10:15:51;;;;;;;12.73;9.40;;;26.90;99.90;;;;;;4139228;28;20045;-80
2021/06/04 10:18:02;;;;;;;11.23;8.00;;;26.90;99.90;;;;;;4123662;28;20034;-81
2021/06/04 10:20:25;;;;;;;9.73;6.93;;;27.00;99.90;;;;;;4126740;28;20442;-80
2021/06/04 10:22:43;;;;;;;8.80;5.65;;;27.10;99.90;;;;;;4124627;28;20073;-80
2021/06/04 10:25:13;;;;;;;10.20;6.50;;;27.10;99.90;;;;;;4143457;28;20034;-80
2021/06/04 10:27:24;;;;;;;7.95;5.10;;;27.20;99.90;;;;;;4138316;28;20042;-80
2021/06/04 10:29:26;;;;;;;10.25;6.03;;;27.30;99.90;;;;;;4126845;28;20108;-81
2021/06/04 10:31:47;;;;;;;8.88;6.20;;;27.30;99.90;;;;;;4130214;28;20037;-80
2021/06/04 10:33:55;;;;;;;11.57;7.30;;;27.30;99.90;;;;;;4144694;28;20034;-80
2021/06/04 10:36:00;;;;;;;9.75;6.05;;;27.30;99.90;;;;;;4143548;28;20076;-80
2021/06/04 10:38:08;;;;;;;10.35;6.45;;;27.40;99.90;;;;;;4140306;28;20102;-80
2021/06/04 10:40:17;;;;;;;7.88;5.35;;;27.40;99.90;;;;;;4146988;28;20026;-81
2021/06/04 10:42:35;;;;;;;7.95;5.95;;;27.50;99.90;;;;;;4146319;28;20040;-81